Time,TemperatureF,DewpointF,PressureIn,WindDirection,WindDirectionDegrees,WindSpeedMPH,WindSpeedGustMPH,Humidity,HourlyPrecipIn,Conditions,Clouds,dailyrainin,SoftwareType,DateUTC
2013-01-15 00:05:00,32.4,24.0,30.29,South,187,0.0,-999.0,70,-99.99,,,0.01,weatherlink.com 1.10,2013-01-15 05:05:00,
2013-01-15 00:20:00,32.3,24.0,30.29,South,187,0.0,-999.0,71,-99.99,,,0.00,weatherlink.com 1.10,2013-01-15 05:20:00,
2013-01-15 00:35:00,32.2,24.0,30.29,NW,310,0.0,-999.0,71,-99.99,,,0.00,weatherlink.com 1.10,2013-01-15 05:35:00,
2013-01-15 00:50:00,31.9,24.0,30.28,NW,310,0.0,-999.0,72,-99.99,,,0.00,weatherlink.com 1.10,2013-01-15 05:50:00,
2013-01-15 01:05:00,31.6,24.0,30.29,NW,310,0.0,-999.0,72,-99.99,,,0.00,weatherlink.com 1.10,2013-01-15 06:05:00,
2013-01-15 01:20:00,31.4,23.0,30.27,NW,310,0.0,-999.0,72,-99.99,,,0.00,weatherlink.com 1.10,2013-01-15 06:20:00,
2013-01-15 01:35:00,31.1,24.0,30.28,NW,310,0.0,-999.0,74,-99.99,,,0.00,weatherlink.com 1.10,2013-01-15 06:35:00,
2013-01-15 01:50:00,31.6,24.0,30.27,NW,310,0.0,-999.0,72,-99.99,,,0.00,weatherlink.com 1.10,2013-01-15 06:50:00,
2013-01-15 02:05:00,30.7,24.0,30.28,NW,310,0.0,-999.0,75,-99.99,,,0.00,weatherlink.com 1.10,2013-01-15 07:05:00,
2013-01-15 02:20:00,29.6,24.0,30.27,NW,311,0.0,-999.0,80,-99.99,,,0.00,weatherlink.com 1.10,2013-01-15 07:20:00,
2013-01-15 02:35:00,30.6,24.0,30.28,NW,311,0.0,-999.0,76,-99.99,,,0.00,weatherlink.com 1.10,2013-01-15 07:35:00,
2013-01-15 02:50:00,30.5,24.0,30.27,NW,310,0.0,-999.0,77,-99.99,,,0.00,weatherlink.com 1.10,2013-01-15 07:50:00,
2013-01-15 03:05:00,29.7,24.0,30.26,NW,310,0.0,-999.0,78,-99.99,,,0.00,weatherlink.com 1.10,2013-01-15 08:05:00,
2013-01-15 03:20:00,29.1,23.0,30.25,NW,310,0.0,-999.0,78,-99.99,,,0.00,weatherlink.com 1.10,2013-01-15 08:20:00,
2013-01-15 03:35:00,28.8,22.0,30.25,NW,310,0.0,-999.0,77,-99.99,,,0.00,weatherlink.com 1.10,2013-01-15 08:35:00,
2013-01-15 03:50:00,28.3,23.0,30.25,NW,310,0.0,-999.0,79,-99.99,,,0.00,weatherlink.com 1.10,2013-01-15 08:50:00,
2013-01-15 04:05:00,27.9,23.0,30.26,NW,310,0.0,-999.0,80,-99.99,,,0.00,weatherlink.com 1.10,2013-01-15 09:05:00,
2013-01-15 04:20:00,27.5,23.0,30.26,NW,311,0.0,-999.0,82,-99.99,,,0.00,weatherlink.com 1.10,2013-01-15 09:20:00,
2013-01-15 04:35:00,27.3,23.0,30.27,NW,311,0.0,-999.0,83,-99.99,,,0.00,weatherlink.com 1.10,2013-01-15 09:35:00,
2013-01-15 04:50:00,27.1,23.0,30.25,NW,310,0.0,-999.0,83,-99.99,,,0.00,weatherlink.com 1.10,2013-01-15 09:50:00,
2013-01-15 05:05:00,26.7,22.0,30.25,NW,310,0.0,-999.0,83,-99.99,,,0.00,weatherlink.com 1.10,2013-01-15 10:05:00,
2013-01-15 05:20:00,26.7,22.0,30.26,NW,310,0.0,-999.0,83,-99.99,,,0.00,weatherlink.com 1.10,2013-01-15 10:20:00,
2013-01-15 05:35:00,26.9,23.0,30.27,NW,310,0.0,-999.0,85,-99.99,,,0.00,weatherlink.com 1.10,2013-01-15 10:35:00,
2013-01-15 05:50:00,26.9,23.0,30.26,NW,311,0.0,-999.0,85,-99.99,,,0.00,weatherlink.com 1.10,2013-01-15 10:50:00,
2013-01-15 06:05:00,27.0,23.0,30.27,NW,311,1.0,-999.0,86,-99.99,,,0.00,weatherlink.com 1.10,2013-01-15 11:05:00,
2013-01-15 06:21:00,27.6,23.0,30.28,NW,310,0.0,-999.0,84,-99.99,,,0.00,weatherlink.com 1.10,2013-01-15 11:21:00,
2013-01-15 06:36:00,27.3,23.0,30.29,NW,311,0.0,-999.0,84,-99.99,,,0.00,weatherlink.com 1.10,2013-01-15 11:36:00,
2013-01-15 06:51:00,27.4,24.0,30.30,NW,311,0.0,-999.0,85,-99.99,,,0.00,weatherlink.com 1.10,2013-01-15 11:51:00,
2013-01-15 07:06:00,27.4,24.0,30.30,NW,311,0.0,-999.0,85,-99.99,,,0.00,weatherlink.com 1.10,2013-01-15 12:06:00,
2013-01-15 07:21:00,27.4,24.0,30.30,NW,311,0.0,-999.0,85,-99.99,,,0.00,weatherlink.com 1.10,2013-01-15 12:21:00,
2013-01-15 07:36:00,27.6,24.0,30.31,NW,311,0.0,-999.0,85,-99.99,,,0.00,weatherlink.com 1.10,2013-01-15 12:36:00,
2013-01-15 07:51:00,27.9,24.0,30.32,NW,311,0.0,-999.0,85,-99.99,,,0.00,weatherlink.com 1.10,2013-01-15 12:51:00,
2013-01-15 08:06:00,28.0,24.0,30.32,NW,311,0.0,-999.0,85,-99.99,,,0.00,weatherlink.com 1.10,2013-01-15 13:06:00,
2013-01-15 08:22:00,28.4,25.0,30.32,NW,311,0.0,-999.0,86,-99.99,,,0.00,weatherlink.com 1.10,2013-01-15 13:22:00,
2013-01-15 08:36:00,28.7,25.0,30.33,NW,311,0.0,-999.0,86,-99.99,,,0.00,weatherlink.com 1.10,2013-01-15 13:36:00,
2013-01-15 08:51:00,28.8,25.0,30.33,NW,310,0.0,-999.0,87,-99.99,,,0.00,weatherlink.com 1.10,2013-01-15 13:51:00,
2013-01-15 09:06:00,28.9,26.0,30.33,NW,311,0.0,-999.0,87,-99.99,,,0.00,weatherlink.com 1.10,2013-01-15 14:06:00,
2013-01-15 09:21:00,29.6,26.0,30.33,NW,310,0.0,-999.0,87,-99.99,,,0.00,weatherlink.com 1.10,2013-01-15 14:21:00,
2013-01-15 09:36:00,30.6,26.0,30.34,NW,311,2.0,-999.0,84,-99.99,,,0.00,weatherlink.com 1.10,2013-01-15 14:36:00,
2013-01-15 09:51:00,31.4,25.0,30.34,NW,319,0.0,-999.0,77,-99.99,,,0.00,weatherlink.com 1.10,2013-01-15 14:51:00,
2013-01-15 10:06:00,31.9,25.0,30.34,NW,319,1.0,-999.0,74,-99.99,,,0.00,weatherlink.com 1.10,2013-01-15 15:06:00,
2013-01-15 10:21:00,32.0,24.0,30.34,WNW,303,2.0,-999.0,73,-99.99,,,0.00,weatherlink.com 1.10,2013-01-15 15:21:00,
2013-01-15 10:36:00,32.1,24.0,30.34,NNE,24,0.0,-999.0,72,-99.99,,,0.00,weatherlink.com 1.10,2013-01-15 15:36:00,
2013-01-15 10:51:00,32.3,24.0,30.33,NNW,336,0.0,-999.0,71,-99.99,,,0.00,weatherlink.com 1.10,2013-01-15 15:51:00,
2013-01-15 11:06:00,32.7,24.0,30.32,NNE,20,6.0,-999.0,70,-99.99,,,0.00,weatherlink.com 1.10,2013-01-15 16:06:00,
2013-01-15 11:21:00,32.6,23.0,30.31,NNE,24,4.0,-999.0,69,-99.99,,,0.00,weatherlink.com 1.10,2013-01-15 16:21:00,
2013-01-15 11:36:00,32.4,23.0,30.30,North,3,4.0,-999.0,69,-99.99,,,0.00,weatherlink.com 1.10,2013-01-15 16:36:00,
2013-01-15 11:51:00,32.4,23.0,30.30,NNW,345,3.0,-999.0,68,-99.99,,,0.00,weatherlink.com 1.10,2013-01-15 16:51:00,
2013-01-15 12:06:00,32.6,23.0,30.30,North,5,2.0,-999.0,69,-99.99,,,0.00,weatherlink.com 1.10,2013-01-15 17:06:00,
2013-01-15 12:21:00,32.6,23.0,30.29,NNE,25,0.0,-999.0,68,-99.99,,,0.00,weatherlink.com 1.10,2013-01-15 17:21:00,
2013-01-15 12:36:00,32.8,23.0,30.29,NNE,20,2.0,-999.0,67,-99.99,,,0.00,weatherlink.com 1.10,2013-01-15 17:36:00,
2013-01-15 12:51:00,32.7,23.0,30.29,NE,37,0.0,-999.0,67,-99.99,,,0.00,weatherlink.com 1.10,2013-01-15 17:51:00,
2013-01-15 13:06:00,32.8,23.0,30.29,NE,37,0.0,-999.0,67,-99.99,,,0.00,weatherlink.com 1.10,2013-01-15 18:06:00,
2013-01-15 13:21:00,32.9,23.0,30.29,NE,36,0.0,-999.0,67,-99.99,,,0.00,weatherlink.com 1.10,2013-01-15 18:21:00,
2013-01-15 13:36:00,32.9,23.0,30.29,SE,141,0.0,-999.0,66,-99.99,,,0.00,weatherlink.com 1.10,2013-01-15 18:36:00,
2013-01-15 13:51:00,33.0,23.0,30.30,SE,142,0.0,-999.0,67,-99.99,,,0.00,weatherlink.com 1.10,2013-01-15 18:51:00,
2013-01-15 14:06:00,33.3,24.0,30.30,SE,141,0.0,-999.0,68,-99.99,,,0.00,weatherlink.com 1.10,2013-01-15 19:06:00,
2013-01-15 14:21:00,33.5,24.0,30.29,SE,142,0.0,-999.0,67,-99.99,,,0.00,weatherlink.com 1.10,2013-01-15 19:21:00,
2013-01-15 14:36:00,33.9,24.0,30.29,SE,142,0.0,-999.0,66,-99.99,,,0.00,weatherlink.com 1.10,2013-01-15 19:36:00,
2013-01-15 14:51:00,33.4,21.0,30.29,WNW,301,5.0,-999.0,60,-99.99,,,0.00,weatherlink.com 1.10,2013-01-15 19:51:00,
2013-01-15 15:06:00,32.8,21.0,30.28,WSW,247,0.0,-999.0,61,-99.99,,,0.00,weatherlink.com 1.10,2013-01-15 20:06:00,
2013-01-15 15:21:00,32.3,20.0,30.28,West,278,4.0,-999.0,62,-99.99,,,0.00,weatherlink.com 1.10,2013-01-15 20:21:00,
2013-01-15 15:36:00,32.1,20.0,30.28,NNW,329,0.0,-999.0,62,-99.99,,,0.00,weatherlink.com 1.10,2013-01-15 20:36:00,
2013-01-15 15:51:00,32.1,20.0,30.30,NNW,329,0.0,-999.0,62,-99.99,,,0.00,weatherlink.com 1.10,2013-01-15 20:51:00,
2013-01-15 16:06:00,31.8,20.0,30.30,NW,312,0.0,-999.0,62,-99.99,,,0.00,weatherlink.com 1.10,2013-01-15 21:06:00,
2013-01-15 16:21:00,31.5,20.0,30.30,NW,309,0.0,-999.0,62,-99.99,,,0.00,weatherlink.com 1.10,2013-01-15 21:21:00,
2013-01-15 16:36:00,31.1,20.0,30.30,NW,309,1.0,-999.0,63,-99.99,,,0.00,weatherlink.com 1.10,2013-01-15 21:36:00,
2013-01-15 16:51:00,30.8,20.0,30.31,NW,309,1.0,-999.0,64,-99.99,,,0.00,weatherlink.com 1.10,2013-01-15 21:51:00,
2013-01-15 17:06:00,30.6,20.0,30.30,NW,309,0.0,-999.0,64,-99.99,,,0.00,weatherlink.com 1.10,2013-01-15 22:06:00,
2013-01-15 17:21:00,30.0,20.0,30.30,NW,309,0.0,-999.0,66,-99.99,,,0.00,weatherlink.com 1.10,2013-01-15 22:21:00,
2013-01-15 17:36:00,29.6,19.0,30.31,NW,309,0.0,-999.0,66,-99.99,,,0.00,weatherlink.com 1.10,2013-01-15 22:36:00,
2013-01-15 18:21:00,28.3,20.0,30.31,NW,309,0.0,-999.0,70,-99.99,,,0.00,weatherlink.com 1.10,2013-01-15 23:21:00,
2013-01-15 18:36:00,27.8,20.0,30.31,NW,309,0.0,-999.0,72,-99.99,,,0.00,weatherlink.com 1.10,2013-01-15 23:36:00,
2013-01-15 18:51:00,27.6,20.0,30.30,NW,309,1.0,-999.0,72,-99.99,,,0.00,weatherlink.com 1.10,2013-01-15 23:51:00,
2013-01-15 19:06:00,27.1,20.0,30.30,NW,309,0.0,-999.0,74,-99.99,,,0.00,weatherlink.com 1.10,2013-01-16 00:06:00,
2013-01-15 19:21:00,26.9,20.0,30.30,NW,309,0.0,-999.0,74,-99.99,,,0.00,weatherlink.com 1.10,2013-01-16 00:21:00,
2013-01-15 19:36:00,26.9,20.0,30.30,NW,309,0.0,-999.0,75,-99.99,,,0.00,weatherlink.com 1.10,2013-01-16 00:36:00,
2013-01-15 19:51:00,26.9,20.0,30.29,NW,309,0.0,-999.0,75,-99.99,,,0.00,weatherlink.com 1.10,2013-01-16 00:51:00,
2013-01-15 20:06:00,27.0,20.0,30.29,NW,309,0.0,-999.0,76,-99.99,,,0.00,weatherlink.com 1.10,2013-01-16 01:06:00,
2013-01-15 20:22:00,27.2,21.0,30.29,NW,309,0.0,-999.0,76,-99.99,,,0.00,weatherlink.com 1.10,2013-01-16 01:22:00,
2013-01-15 20:37:00,26.5,21.0,30.29,NW,309,0.0,-999.0,78,-99.99,,,0.00,weatherlink.com 1.10,2013-01-16 01:37:00,
2013-01-15 20:52:00,26.5,21.0,30.29,NW,309,0.0,-999.0,78,-99.99,,,0.00,weatherlink.com 1.10,2013-01-16 01:52:00,
2013-01-15 21:07:00,27.1,21.0,30.28,NW,309,0.0,-999.0,77,-99.99,,,0.00,weatherlink.com 1.10,2013-01-16 02:07:00,
2013-01-15 21:22:00,27.1,21.0,30.27,NW,309,0.0,-999.0,77,-99.99,,,0.00,weatherlink.com 1.10,2013-01-16 02:22:00,
2013-01-15 21:37:00,26.7,21.0,30.27,NW,309,0.0,-999.0,78,-99.99,,,0.00,weatherlink.com 1.10,2013-01-16 02:37:00,
2013-01-15 21:52:00,26.8,21.0,30.26,NW,309,2.0,-999.0,78,-99.99,,,0.00,weatherlink.com 1.10,2013-01-16 02:52:00,
2013-01-15 22:07:00,26.9,21.0,30.27,NW,309,0.0,-999.0,79,-99.99,,,0.00,weatherlink.com 1.10,2013-01-16 03:07:00,
2013-01-15 22:22:00,26.5,21.0,30.27,NW,309,0.0,-999.0,79,-99.99,,,0.00,weatherlink.com 1.10,2013-01-16 03:22:00,
2013-01-15 22:37:00,26.6,21.0,30.27,NW,309,0.0,-999.0,79,-99.99,,,0.00,weatherlink.com 1.10,2013-01-16 03:37:00,
2013-01-15 22:52:00,26.7,21.0,30.26,NW,309,0.0,-999.0,79,-99.99,,,0.00,weatherlink.com 1.10,2013-01-16 03:52:00,
2013-01-15 23:07:00,26.5,21.0,30.27,NW,309,0.0,-999.0,80,-99.99,,,0.00,weatherlink.com 1.10,2013-01-16 04:07:00,
2013-01-15 23:22:00,26.4,21.0,30.27,NW,309,0.0,-999.0,80,-99.99,,,0.00,weatherlink.com 1.10,2013-01-16 04:22:00,
2013-01-15 23:37:00,26.7,21.0,30.28,NW,309,0.0,-999.0,80,-99.99,,,0.00,weatherlink.com 1.10,2013-01-16 04:37:00,
2013-01-15 23:52:00,26.7,21.0,30.26,NW,309,0.0,-999.0,80,-99.99,,,0.00,weatherlink.com 1.10,2013-01-16 04:52:00,